EGPF - Glasgow Airport
Distance from station: E 5mi, 14km
Updated: 07/20/2018 8:50pm
Overcast
Overcast
 Wind from W
Wind: W 5 mph , 7 km/h
Temperature: 59°F , 15°C
Dew Point: 57°F , 14°C
Humidity: 94%
Barometer: 29.91 inHg , 1013 hPa
Clouds: Overcast
Visibility: 6 miles , 10 km
Cloud details: Overcast 3100 ft
2018/07/21 03:50 EGPF 210350Z AUTO 28004KT 9999 OVC031 15/14 Q1013